Time;durP1;ratioP1;P1;durP2;ratioP2;P2;SDS_P1;SDS_P2;PMS_P1;PMS_P2;Temp;Humidity;BMP_temperature;BMP_pressure;BME280_temperature;BME280_humidity;BME280_pressure;Samples;Min_cycle;Max_cycle;Signal;HPM_P1;HPM_P2
2022/04/11 06:01:15;;;;;;;13.90;2.40;;;;;;;;;;5540243;23;20042;-89
2022/04/11 06:03:41;;;;;;;8.57;1.92;;;;;;;;;;4991992;28;20507;-91
2022/04/11 06:06:08;;;;;;;8.27;1.90;;;;;;;;;;4991156;28;20138;-91
2022/04/11 06:08:35;;;;;;;11.52;1.60;;;;;;;;;;4967666;28;20130;-90
2022/04/11 06:11:02;;;;;;;8.02;1.95;;;;;;;;;;4971524;28;20126;-90
2022/04/11 06:13:29;;;;;;;9.73;2.08;;;;;;;;;;4988986;28;20046;-92
2022/04/11 06:15:56;;;;;;;10.38;2.10;;;;;;;;;;4992981;28;20536;-88
2022/04/11 06:18:23;;;;;;;6.82;1.80;;;;;;;;;;4991667;28;20083;-88
2022/04/11 06:20:50;;;;;;;7.30;2.22;;;;;;;;;;4990024;28;20125;-90
2022/04/11 06:23:17;;;;;;;9.20;1.85;;;;;;;;;;4986143;28;20046;-87
2022/04/11 06:25:44;;;;;;;10.30;1.90;;;;;;;;;;4990237;28;20081;-88
2022/04/11 06:28:10;;;;;;;14.07;2.20;;;;;;;;;;4990195;28;20042;-88
2022/04/11 06:30:37;;;;;;;9.00;1.70;;;;;;;;;;4991666;28;20053;-88
2022/04/11 06:33:04;;;;;;;11.30;2.30;;;;;;;;;;4972285;28;20050;-86
2022/04/11 06:35:30;;;;;;;12.95;2.75;;;;;;;;;;4989783;28;20570;-87
2022/04/11 06:37:57;;;;;;;11.38;2.38;;;;;;;;;;4988428;28;20490;-88
2022/04/11 06:40:23;;;;;;;8.18;1.90;;;;;;;;;;4989536;28;20138;-92
2022/04/11 06:42:50;;;;;;;12.05;2.70;;;;;;;;;;4973007;28;20491;-88
2022/04/11 06:45:16;;;;;;;8.98;1.90;;;;;;;;;;4971662;28;20112;-88
2022/04/11 06:47:44;;;;;;;16.70;2.80;;;;;;;;;;4990489;28;20101;-89
2022/04/11 06:50:11;;;;;;;8.27;1.90;;;;;;;;;;4986094;28;20498;-88
2022/04/11 06:52:38;;;;;;;12.00;2.60;;;;;;;;;;4987729;28;20532;-89
2022/04/11 06:55:05;;;;;;;10.30;2.42;;;;;;;;;;4988365;28;20130;-89
2022/04/11 06:57:31;;;;;;;9.18;2.17;;;;;;;;;;4992956;28;20078;-89
2022/04/11 07:00:00;;;;;;;14.05;2.63;;;;;;;;;;5000356;28;20145;-90
2022/04/11 07:02:28;;;;;;;19.15;3.25;;;;;;;;;;4979934;28;20062;-91
2022/04/11 07:04:55;;;;;;;12.60;2.30;;;;;;;;;;4978614;28;20042;-89
2022/04/11 07:07:21;;;;;;;10.30;2.28;;;;;;;;;;4982075;28;20077;-89
2022/04/11 07:09:48;;;;;;;18.70;3.63;;;;;;;;;;4995486;28;20046;-89
2022/04/11 07:12:15;;;;;;;9.90;2.30;;;;;;;;;;4994948;28;20069;-89
2022/04/11 07:14:41;;;;;;;15.02;2.70;;;;;;;;;;4975673;28;20046;-88
2022/04/11 07:17:08;;;;;;;16.20;3.28;;;;;;;;;;4990731;28;20066;-90
2022/04/11 07:19:35;;;;;;;13.13;2.83;;;;;;;;;;4989462;28;20082;-90
2022/04/11 07:22:01;;;;;;;12.13;2.92;;;;;;;;;;4969808;28;20085;-91
2022/04/11 07:24:28;;;;;;;16.85;2.95;;;;;;;;;;4995643;28;20081;-92
2022/04/11 07:26:54;;;;;;;14.55;2.40;;;;;;;;;;4979867;28;20499;-91
2022/04/11 07:29:21;;;;;;;12.85;2.50;;;;;;;;;;4978672;28;20046;-91
2022/04/11 07:31:48;;;;;;;14.90;2.90;;;;;;;;;;4987061;28;20101;-90
2022/04/11 07:34:15;;;;;;;12.55;2.38;;;;;;;;;;4972549;28;20101;-91
2022/04/11 07:36:41;;;;;;;20.17;3.40;;;;;;;;;;4979403;28;20510;-91
2022/04/11 07:39:08;;;;;;;10.48;2.85;;;;;;;;;;4977530;28;20046;-92
2022/04/11 07:41:34;;;;;;;17.67;3.53;;;;;;;;;;4993182;28;20105;-90
2022/04/11 07:44:01;;;;;;;15.25;2.83;;;;;;;;;;4985162;28;20046;-92
2022/04/11 07:46:28;;;;;;;19.58;2.92;;;;;;;;;;4977539;28;20066;-89
2022/04/11 07:48:54;;;;;;;14.57;2.80;;;;;;;;;;4994098;28;20081;-89
2022/04/11 07:51:21;;;;;;;20.00;3.17;;;;;;;;;;4978147;28;20507;-90
2022/04/11 07:53:48;;;;;;;19.00;2.90;;;;;;;;;;4979434;28;20084;-88
2022/04/11 07:56:14;;;;;;;21.77;3.22;;;;;;;;;;4991728;28;20074;-90
2022/04/11 07:58:41;;;;;;;14.93;3.10;;;;;;;;;;4985009;28;20133;-89
2022/04/11 08:01:10;;;;;;;19.85;3.92;;;;;;;;;;4977992;28;20116;-89
2022/04/11 08:03:37;;;;;;;14.32;3.70;;;;;;;;;;4994522;28;20050;-90
2022/04/11 08:06:03;;;;;;;18.20;3.70;;;;;;;;;;4976634;28;20046;-89
2022/04/11 08:08:30;;;;;;;15.95;3.42;;;;;;;;;;4975715;28;20101;-91
2022/04/11 08:10:57;;;;;;;18.85;3.33;;;;;;;;;;4970364;28;20494;-91
2022/04/11 08:13:23;;;;;;;12.32;3.10;;;;;;;;;;4976790;28;20079;-90
2022/04/11 08:15:50;;;;;;;13.05;3.25;;;;;;;;;;4992183;28;20046;-90
2022/04/11 08:18:17;;;;;;;19.83;3.97;;;;;;;;;;4974738;28;20080;-88
2022/04/11 08:20:43;;;;;;;14.15;2.72;;;;;;;;;;4980253;28;20034;-90
2022/04/11 08:23:10;;;;;;;26.88;3.20;;;;;;;;;;4963430;28;20112;-88
2022/04/11 08:25:37;;;;;;;22.70;3.75;;;;;;;;;;4989898;28;20089;-87
2022/04/11 08:28:04;;;;;;;17.58;3.28;;;;;;;;;;4990076;28;20042;-90
2022/04/11 08:30:31;;;;;;;18.40;3.08;;;;;;;;;;4981330;28;20046;-90
2022/04/11 08:32:58;;;;;;;17.40;4.20;;;;;;;;;;4993796;28;20063;-89
2022/04/11 08:35:26;;;;;;;19.30;3.42;;;;;;;;;;4992051;28;20058;-91
2022/04/11 08:37:54;;;;;;;13.85;2.70;;;;;;;;;;4997237;28;20042;-92
2022/04/11 08:40:22;;;;;;;25.45;4.38;;;;;;;;;;4976903;28;20142;-89
2022/04/11 08:42:50;;;;;;;29.05;4.97;;;;;;;;;;4988492;28;20042;-87
2022/04/11 08:45:25;;;;;;;22.73;3.88;;;;;;;;;;4986605;28;20108;-88
2022/04/11 08:47:56;;;;;;;15.75;3.75;;;;;;;;;;4986463;28;20524;-87
2022/04/11 08:50:25;;;;;;;21.90;3.80;;;;;;;;;;4987469;28;20056;-90
2022/04/11 08:53:05;;;;;;;;;;;;;;;;;;4956859;28;20074;-88
2022/04/11 08:55:38;;;;;;;25.60;3.67;;;;;;;;;;4959502;28;19929;-85
2022/04/11 08:58:05;;;;;;;21.17;3.42;;;;;;;;;;4969304;28;20051;-86
2022/04/11 09:00:32;;;;;;;22.00;3.88;;;;;;;;;;4991213;28;20054;-85
2022/04/11 09:02:58;;;;;;;21.75;3.65;;;;;;;;;;4987334;28;20117;-87
2022/04/11 09:05:27;;;;;;;24.83;4.75;;;;;;;;;;4970576;28;20058;-86
2022/04/11 09:07:56;;;;;;;23.08;3.33;;;;;;;;;;4984719;28;20054;-87
2022/04/11 09:10:23;;;;;;;;;;;;;;;;;;4986430;28;20573;-86
2022/04/11 09:12:52;;;;;;;25.98;4.25;;;;;;;;;;4963544;28;19980;-86
2022/04/11 09:15:20;;;;;;;22.25;3.90;;;;;;;;;;4986383;28;20514;-86
2022/04/11 09:17:47;;;;;;;21.40;3.97;;;;;;;;;;4991285;28;20661;-88
2022/04/11 09:20:25;;;;;;;22.85;4.28;;;;;;;;;;4988211;28;20093;-87
2022/04/11 09:22:52;;;;;;;21.42;4.55;;;;;;;;;;4985689;28;20529;-87
2022/04/11 09:25:21;;;;;;;27.73;4.20;;;;;;;;;;4987897;28;20080;-83
2022/04/11 09:27:48;;;;;;;;;;;;;;;;;;4969078;28;20426;-87
2022/04/11 09:30:27;;;;;;;25.40;4.15;;;;;;;;;;4968917;28;20342;-86
2022/04/11 09:32:56;;;;;;;22.30;4.40;;;;;;;;;;4986240;28;20038;-85
2022/04/11 09:35:32;;;;;;;25.05;4.60;;;;;;;;;;4980682;28;20045;-88
2022/04/11 09:38:18;;;;;;;23.48;3.70;;;;;;;;;;4967837;28;20112;-85
2022/04/11 09:40:48;;;;;;;21.40;4.35;;;;;;;;;;4984424;28;20525;-88
2022/04/11 09:43:18;;;;;;;31.63;5.03;;;;;;;;;;4984121;28;20042;-86
2022/04/11 09:45:47;;;;;;;29.42;4.88;;;;;;;;;;4967922;28;20121;-87
2022/04/11 09:48:25;;;;;;;28.67;5.00;;;;;;;;;;4969396;28;20042;-87
2022/04/11 09:50:53;;;;;;;30.92;5.13;;;;;;;;;;4986310;28;20046;-86
2022/04/11 09:53:22;;;;;;;23.40;4.15;;;;;;;;;;4986109;28;20133;-87
2022/04/11 09:55:51;;;;;;;32.30;5.33;;;;;;;;;;4987760;28;20050;-86
2022/04/11 09:58:20;;;;;;;39.60;5.97;;;;;;;;;;4970407;28;20101;-86
2022/04/11 10:00:48;;;;;;;31.83;4.97;;;;;;;;;;4985210;28;20506;-86
2022/04/11 10:03:17;;;;;;;38.70;5.95;;;;;;;;;;4986301;28;20085;-85
2022/04/11 10:05:43;;;;;;;43.30;6.68;;;;;;;;;;4973276;28;20145;-90
2022/04/11 10:09:29;;;;;;;28.70;6.10;;;;;;;;;;4945875;28;20059;-89
2022/04/11 10:12:01;;;;;;;38.47;5.45;;;;;;;;;;4967060;28;20050;-86
2022/04/11 10:14:29;;;;;;;27.95;5.78;;;;;;;;;;4951125;28;20160;-92
2022/04/11 10:17:16;;;;;;;28.97;4.97;;;;;;;;;;4967720;28;20109;-91
2022/04/11 10:19:57;;;;;;;32.85;4.97;;;;;;;;;;4947257;28;20294;-90
2022/04/11 10:22:38;;;;;;;35.23;6.13;;;;;;;;;;4937647;28;20129;-91
2022/04/11 10:25:23;;;;;;;34.55;5.40;;;;;;;;;;4970831;28;20049;-92
2022/04/11 10:28:15;;;;;;;31.65;5.20;;;;;;;;;;4996615;28;20560;-87
2022/04/11 10:30:44;;;;;;;32.05;5.00;;;;;;;;;;4998546;28;20049;-91
2022/04/11 10:33:12;;;;;;;41.80;6.07;;;;;;;;;;4962892;28;20054;-91
2022/04/11 10:35:44;;;;;;;28.50;5.45;;;;;;;;;;4981661;28;20058;-89
2022/04/11 10:38:12;;;;;;;23.33;4.78;;;;;;;;;;4978559;28;20042;-88
2022/04/11 10:40:47;;;;;;;29.83;6.25;;;;;;;;;;4985415;28;20053;-90
2022/04/11 10:43:33;;;;;;;33.80;5.80;;;;;;;;;;4982450;28;20134;-90
2022/04/11 10:46:00;;;;;;;37.10;5.32;;;;;;;;;;4968389;28;20119;-95
2022/04/11 10:48:56;;;;;;;29.58;6.03;;;;;;;;;;4974980;28;20537;-95
2022/04/11 10:51:23;;;;;;;20.55;4.28;;;;;;;;;;4974734;28;20542;-93
2022/04/11 10:54:16;;;;;;;28.00;4.95;;;;;;;;;;4961735;28;20085;-95
2022/04/11 10:57:03;;;;;;;33.78;5.03;;;;;;;;;;4992252;28;20062;-93
2022/04/11 11:00:07;;;;;;;25.73;4.38;;;;;;;;;;4977916;28;20058;-93
2022/04/11 11:05:28;;;;;;;35.50;5.35;;;;;;;;;;4994304;28;20129;-94
2022/04/11 11:08:09;;;;;;;30.88;4.93;;;;;;;;;;4998304;28;20111;-91
2022/04/11 11:10:52;;;;;;;34.65;5.18;;;;;;;;;;4982129;28;20046;-90
2022/04/11 11:13:34;;;;;;;33.80;5.55;;;;;;;;;;5000843;28;20046;-89
2022/04/11 11:16:10;;;;;;;27.48;4.82;;;;;;;;;;4958426;28;20186;-91
2022/04/11 11:18:48;;;;;;;25.25;4.18;;;;;;;;;;4983018;28;20053;-91
2022/04/11 11:21:29;;;;;;;27.38;4.90;;;;;;;;;;4975479;28;20054;-92
2022/04/11 11:24:12;;;;;;;30.15;4.47;;;;;;;;;;4991963;28;20054;-89
2022/04/11 11:26:48;;;;;;;23.88;4.15;;;;;;;;;;4979888;28;20050;-91
2022/04/11 11:29:24;;;;;;;21.02;3.67;;;;;;;;;;4978327;28;20054;-92
2022/04/11 11:31:53;;;;;;;25.10;3.65;;;;;;;;;;4966008;28;20054;-91
2022/04/11 11:34:22;;;;;;;19.75;4.40;;;;;;;;;;4991201;28;20129;-93
2022/04/11 11:36:49;;;;;;;25.02;4.15;;;;;;;;;;4974293;28;20050;-92
2022/04/11 11:39:19;;;;;;;19.35;3.90;;;;;;;;;;4971971;28;20099;-92
2022/04/11 11:41:47;;;;;;;30.25;3.92;;;;;;;;;;4972344;28;20054;-91
2022/04/11 11:44:15;;;;;;;15.77;3.28;;;;;;;;;;4978927;28;20495;-92
2022/04/11 11:47:05;;;;;;;17.45;3.45;;;;;;;;;;4988812;28;20569;-91
2022/04/11 11:49:42;;;;;;;25.08;3.67;;;;;;;;;;4994513;28;20054;-89
2022/04/11 11:52:16;;;;;;;25.00;4.07;;;;;;;;;;4999920;28;20558;-91
2022/04/11 11:54:48;;;;;;;14.98;3.67;;;;;;;;;;4997822;28;20101;-92
2022/04/11 11:57:18;;;;;;;25.60;4.78;;;;;;;;;;4985489;28;20498;-91
2022/04/11 11:59:49;;;;;;;23.67;4.20;;;;;;;;;;5002319;28;20064;-91
2022/04/11 12:05:02;;;;;;;23.15;4.07;;;;;;;;;;4988879;28;20083;-95
2022/04/11 12:07:29;;;;;;;23.00;3.53;;;;;;;;;;5007048;28;20076;-96
2022/04/11 12:09:57;;;;;;;19.80;4.15;;;;;;;;;;4978437;28;20077;-91
2022/04/11 12:12:26;;;;;;;24.17;4.22;;;;;;;;;;4987746;28;20069;-96
2022/04/11 12:15:03;;;;;;;23.10;3.70;;;;;;;;;;4990128;28;20077;-93
2022/04/11 12:17:37;;;;;;;22.45;3.97;;;;;;;;;;4973589;28;20583;-95
2022/04/11 12:20:11;;;;;;;28.48;4.43;;;;;;;;;;4967740;28;20399;-93
2022/04/11 12:22:39;;;;;;;20.55;3.83;;;;;;;;;;4975054;28;20113;-91
2022/04/11 12:25:27;;;;;;;20.52;4.60;;;;;;;;;;4971013;28;20101;-93
2022/04/11 12:28:11;;;;;;;31.97;4.93;;;;;;;;;;4991677;28;20042;-91
2022/04/11 12:30:39;;;;;;;21.17;4.40;;;;;;;;;;4987041;28;20124;-92
2022/04/11 12:33:06;;;;;;;;;;;;;;;;;;4986886;28;20125;-88
2022/04/11 12:35:35;;;;;;;30.45;5.05;;;;;;;;;;4987651;28;20439;-93
2022/04/11 12:38:07;;;;;;;;;;;;;;;;;;4991809;28;20105;-92
2022/04/11 12:40:42;;;;;;;29.40;4.18;;;;;;;;;;4990120;28;19930;-91
2022/04/11 12:43:22;;;;;;;35.08;5.30;;;;;;;;;;4970933;28;20046;-93
2022/04/11 12:46:05;;;;;;;22.63;4.07;;;;;;;;;;4981826;28;20486;-90
2022/04/11 12:48:56;;;;;;;24.83;3.70;;;;;;;;;;4984632;28;20056;-89
2022/04/11 12:51:24;;;;;;;24.42;3.88;;;;;;;;;;4984607;28;20570;-91
2022/04/11 12:53:51;;;;;;;23.83;4.47;;;;;;;;;;4980183;28;20474;-89
2022/04/11 12:56:18;;;;;;;25.67;4.10;;;;;;;;;;4986321;28;20422;-89
2022/04/11 12:58:45;;;;;;;27.50;3.93;;;;;;;;;;4986791;28;20089;-88
2022/04/11 13:01:12;;;;;;;19.88;4.03;;;;;;;;;;4963153;28;20478;-90
2022/04/11 13:03:38;;;;;;;18.10;3.67;;;;;;;;;;4968286;28;20047;-88
2022/04/11 13:06:05;;;;;;;16.25;3.15;;;;;;;;;;4956738;28;20090;-87
2022/04/11 13:08:32;;;;;;;16.30;2.92;;;;;;;;;;4965829;28;20109;-89
2022/04/11 13:10:58;;;;;;;16.23;3.53;;;;;;;;;;4969184;28;20134;-88
2022/04/11 13:13:28;;;;;;;22.75;3.92;;;;;;;;;;4965324;28;20212;-91
2022/04/11 13:18:40;;;;;;;25.88;4.63;;;;;;;;;;4968102;28;20057;-93
2022/04/11 13:21:07;;;;;;;21.15;4.68;;;;;;;;;;4964933;28;20066;-92
2022/04/11 13:23:34;;;;;;;23.50;4.53;;;;;;;;;;4981523;28;20059;-91
2022/04/11 13:26:03;;;;;;;24.42;5.15;;;;;;;;;;4967111;28;20077;-92
2022/04/11 13:28:30;;;;;;;29.00;5.53;;;;;;;;;;4965854;28;20133;-89
2022/04/11 13:30:58;;;;;;;22.63;4.40;;;;;;;;;;4963434;28;20071;-92
2022/04/11 13:33:26;;;;;;;20.80;4.30;;;;;;;;;;4970983;28;20050;-95
2022/04/11 13:35:53;;;;;;;16.95;3.88;;;;;;;;;;4970701;28;20054;-92
2022/04/11 13:38:19;;;;;;;17.60;4.25;;;;;;;;;;4965673;28;20105;-93
2022/04/11 13:40:46;;;;;;;17.85;3.85;;;;;;;;;;4970060;28;20067;-94
2022/04/11 13:43:13;;;;;;;19.23;3.70;;;;;;;;;;4970548;28;20055;-93
2022/04/11 13:45:44;;;;;;;16.70;3.30;;;;;;;;;;4971147;28;20051;-93
2022/04/11 13:48:10;;;;;;;14.95;3.30;;;;;;;;;;4968971;28;20054;-90
2022/04/11 13:50:38;;;;;;;17.83;3.63;;;;;;;;;;4969234;28;20105;-93
2022/04/11 13:53:05;;;;;;;21.67;4.07;;;;;;;;;;4971041;28;20503;-93
2022/04/11 13:55:32;;;;;;;17.27;3.38;;;;;;;;;;4972251;28;20925;-93
2022/04/11 13:57:59;;;;;;;14.90;3.20;;;;;;;;;;4970071;28;20046;-91
2022/04/11 14:00:26;;;;;;;17.80;3.47;;;;;;;;;;4971239;28;20786;-92
2022/04/11 14:02:53;;;;;;;13.93;3.50;;;;;;;;;;4989353;28;20085;-93
2022/04/11 14:05:20;;;;;;;24.25;3.50;;;;;;;;;;4991767;28;20043;-92
2022/04/11 14:07:49;;;;;;;17.17;4.05;;;;;;;;;;4977184;28;20515;-93
2022/04/11 14:10:18;;;;;;;13.30;2.92;;;;;;;;;;4976290;28;20050;-96
2022/04/11 14:12:45;;;;;;;16.45;3.08;;;;;;;;;;4993498;28;20053;-95
2022/04/11 14:15:12;;;;;;;16.67;3.75;;;;;;;;;;4975603;28;20426;-94
2022/04/11 14:17:38;;;;;;;18.77;3.17;;;;;;;;;;4977177;28;20054;-94
2022/04/11 14:20:07;;;;;;;19.27;3.13;;;;;;;;;;4972727;28;20046;-94
2022/04/11 14:22:34;;;;;;;17.33;3.53;;;;;;;;;;4991030;28;20046;-94
2022/04/11 14:25:01;;;;;;;21.85;3.25;;;;;;;;;;4980591;28;20046;-95
2022/04/11 14:27:47;;;;;;;12.55;3.20;;;;;;;;;;4973604;28;20077;-93
2022/04/11 14:30:14;;;;;;;15.73;3.33;;;;;;;;;;4967673;28;20495;-94
2022/04/11 14:32:41;;;;;;;16.50;2.88;;;;;;;;;;4965860;28;20053;-94
2022/04/11 14:35:08;;;;;;;11.50;2.60;;;;;;;;;;4966493;28;20046;-94
2022/04/11 14:37:35;;;;;;;9.00;2.22;;;;;;;;;;4968005;28;20057;-93
2022/04/11 14:40:02;;;;;;;9.73;2.03;;;;;;;;;;4985739;28;20055;-95
2022/04/11 14:42:28;;;;;;;14.68;2.38;;;;;;;;;;4972205;28;20050;-91
2022/04/11 14:44:55;;;;;;;11.63;2.35;;;;;;;;;;4965533;28;20144;-93
2022/04/11 14:47:23;;;;;;;11.70;2.73;;;;;;;;;;4984486;28;20092;-90
2022/04/11 14:49:50;;;;;;;9.30;1.95;;;;;;;;;;4983356;28;20061;-92
2022/04/11 14:52:22;;;;;;;11.15;2.78;;;;;;;;;;4988290;28;20050;-93
2022/04/11 14:55:00;;;;;;;12.65;2.28;;;;;;;;;;4973404;28;20046;-93
2022/04/11 14:57:27;;;;;;;8.25;2.03;;;;;;;;;;4991484;28;20054;-92
2022/04/11 14:59:54;;;;;;;11.63;2.40;;;;;;;;;;4972401;28;20069;-92
2022/04/11 15:02:21;;;;;;;12.10;2.25;;;;;;;;;;4971224;28;20418;-93
2022/04/11 15:04:48;;;;;;;9.25;2.15;;;;;;;;;;4971665;28;20039;-92
2022/04/11 15:07:15;;;;;;;10.27;2.00;;;;;;;;;;4971633;28;20042;-91
2022/04/11 15:09:42;;;;;;;9.25;2.05;;;;;;;;;;4971554;28;20100;-94
2022/04/11 15:12:10;;;;;;;12.75;2.22;;;;;;;;;;4989851;28;20054;-91
2022/04/11 15:14:37;;;;;;;9.80;2.33;;;;;;;;;;4971951;28;20113;-91
2022/04/11 15:17:04;;;;;;;7.43;1.92;;;;;;;;;;4983427;28;20078;-93
2022/04/11 15:19:31;;;;;;;11.30;2.20;;;;;;;;;;4985022;28;20133;-94
2022/04/11 15:21:59;;;;;;;7.07;1.45;;;;;;;;;;4973024;28;20225;-93
2022/04/11 15:24:26;;;;;;;9.13;1.63;;;;;;;;;;4980035;28;20058;-92
2022/04/11 15:26:52;;;;;;;7.85;1.70;;;;;;;;;;4974955;28;20108;-93
2022/04/11 15:29:19;;;;;;;6.65;1.75;;;;;;;;;;4988931;28;20356;-91
2022/04/11 15:31:46;;;;;;;8.95;2.00;;;;;;;;;;4994466;28;20117;-93
2022/04/11 15:34:12;;;;;;;8.05;1.85;;;;;;;;;;4968548;28;20064;-93
2022/04/11 15:36:53;;;;;;;5.13;1.55;;;;;;;;;;4991571;28;20507;-92
2022/04/11 15:39:20;;;;;;;7.47;1.63;;;;;;;;;;4971434;28;20043;-91
2022/04/11 15:41:48;;;;;;;11.45;1.92;;;;;;;;;;4990675;28;20104;-91
2022/04/11 15:44:15;;;;;;;6.18;1.90;;;;;;;;;;4973619;28;20050;-91
2022/04/11 15:46:42;;;;;;;5.47;1.50;;;;;;;;;;4989212;28;20423;-92
2022/04/11 15:49:09;;;;;;;9.18;1.77;;;;;;;;;;4984945;28;20046;-92
2022/04/11 15:51:36;;;;;;;12.88;2.20;;;;;;;;;;4990607;28;20573;-90
2022/04/11 15:54:06;;;;;;;6.63;2.00;;;;;;;;;;4988987;28;20116;-92
2022/04/11 15:56:33;;;;;;;8.50;1.50;;;;;;;;;;4974777;28;20089;-91
2022/04/11 15:59:00;;;;;;;7.22;1.30;;;;;;;;;;4972683;28;20074;-90
2022/04/11 16:01:27;;;;;;;5.93;1.50;;;;;;;;;;4991358;28;20431;-91
2022/04/11 16:03:54;;;;;;;8.52;1.45;;;;;;;;;;4977246;28;20055;-89
2022/04/11 16:06:21;;;;;;;9.10;1.60;;;;;;;;;;4974869;28;20104;-91
2022/04/11 16:08:48;;;;;;;4.45;1.38;;;;;;;;;;4973550;28;20058;-92
2022/04/11 16:11:15;;;;;;;4.43;0.80;;;;;;;;;;4973601;28;20073;-89
2022/04/11 16:13:42;;;;;;;2.83;0.80;;;;;;;;;;4990361;28;20514;-94
2022/04/11 16:16:10;;;;;;;3.55;0.90;;;;;;;;;;4990016;28;20116;-91
2022/04/11 16:18:37;;;;;;;6.38;0.85;;;;;;;;;;4976826;28;20080;-90
2022/04/11 16:21:04;;;;;;;4.05;1.23;;;;;;;;;;4983309;28;20065;-93
2022/04/11 16:23:31;;;;;;;3.05;0.80;;;;;;;;;;4975161;28;20030;-92
2022/04/11 16:26:01;;;;;;;4.88;0.98;;;;;;;;;;4990108;28;20045;-91
2022/04/11 16:28:28;;;;;;;5.45;1.17;;;;;;;;;;4990579;28;20050;-93
2022/04/11 16:30:55;;;;;;;3.08;1.38;;;;;;;;;;4966797;28;20101;-93
2022/04/11 16:33:23;;;;;;;5.18;1.40;;;;;;;;;;4973999;28;20562;-92
2022/04/11 16:35:55;;;;;;;4.40;0.85;;;;;;;;;;4986111;28;20106;-92
2022/04/11 16:38:22;;;;;;;4.57;1.33;;;;;;;;;;4964855;28;20419;-93
2022/04/11 16:40:48;;;;;;;6.97;1.67;;;;;;;;;;4989702;28;20073;-91
2022/04/11 16:43:15;;;;;;;5.53;1.00;;;;;;;;;;4987283;28;20047;-90
2022/04/11 16:45:42;;;;;;;4.90;1.08;;;;;;;;;;4965436;28;20062;-91
2022/04/11 16:48:09;;;;;;;5.43;1.15;;;;;;;;;;4990401;28;20054;-92
2022/04/11 16:50:36;;;;;;;5.70;1.10;;;;;;;;;;4989867;28;20109;-93
2022/04/11 16:53:03;;;;;;;8.95;1.60;;;;;;;;;;4988451;28;20051;-93
2022/04/11 16:55:29;;;;;;;6.50;1.40;;;;;;;;;;4970419;28;20727;-93
2022/04/11 16:57:58;;;;;;;7.35;1.70;;;;;;;;;;4982596;28;20065;-91
2022/04/11 17:00:25;;;;;;;7.85;1.90;;;;;;;;;;4966078;28;20066;-90
2022/04/11 17:02:52;;;;;;;7.18;2.03;;;;;;;;;;4988066;28;20050;-90
2022/04/11 17:05:18;;;;;;;9.50;2.72;;;;;;;;;;4973861;28;20042;-93
2022/04/11 17:07:46;;;;;;;10.73;2.55;;;;;;;;;;4975198;28;20054;-95
2022/04/11 17:10:13;;;;;;;6.82;1.95;;;;;;;;;;4972421;28;20046;-92
2022/04/11 17:12:40;;;;;;;11.93;2.40;;;;;;;;;;4986123;28;20050;-91
2022/04/11 17:18:30;;;;;;;10.30;2.13;;;;;;;;;;4971531;28;20054;-95
2022/04/11 17:20:40;;;;;;;9.18;2.20;;;;;;;;;;4981944;28;20108;-96
2022/04/11 17:23:09;;;;;;;;;;;;;;;;;;4975841;28;20042;-94
2022/04/11 17:25:42;;;;;;;5.97;2.00;;;;;;;;;;4986901;28;19953;-94
2022/04/11 17:28:09;;;;;;;10.98;2.47;;;;;;;;;;4984527;28;20038;-94
2022/04/11 17:30:36;;;;;;;12.95;3.38;;;;;;;;;;4985535;28;20054;-93
2022/04/11 17:33:03;;;;;;;14.43;2.78;;;;;;;;;;4995947;28;20128;-95
2022/04/11 17:35:31;;;;;;;17.02;3.13;;;;;;;;;;5005970;28;20172;-94
2022/04/11 17:37:58;;;;;;;20.50;3.90;;;;;;;;;;5009702;28;20075;-92
2022/04/11 17:40:25;;;;;;;15.98;4.07;;;;;;;;;;5009786;28;20073;-94
2022/04/11 17:42:52;;;;;;;19.48;4.18;;;;;;;;;;5011393;28;20121;-91
2022/04/11 17:45:19;;;;;;;18.13;3.30;;;;;;;;;;5008464;28;20046;-90
2022/04/11 17:47:46;;;;;;;18.17;3.55;;;;;;;;;;5008935;28;20097;-91
2022/04/11 17:50:12;;;;;;;20.17;4.35;;;;;;;;;;4988548;28;20046;-91
2022/04/11 17:52:39;;;;;;;33.15;5.45;;;;;;;;;;5010903;28;20034;-90
2022/04/11 17:55:07;;;;;;;30.45;5.75;;;;;;;;;;5008123;28;20065;-89
2022/04/11 17:57:34;;;;;;;26.52;6.15;;;;;;;;;;5012984;28;20054;-91
2022/04/11 18:00:00;;;;;;;35.58;6.28;;;;;;;;;;5004292;28;20054;-84
2022/04/11 18:02:36;;;;;;;32.58;6.78;;;;;;;;;;4986087;28;20050;-86
2022/04/11 18:05:15;;;;;;;30.67;5.80;;;;;;;;;;4988293;28;20046;-84
2022/04/11 18:07:41;;;;;;;34.90;6.10;;;;;;;;;;5001328;28;20062;-91
2022/04/11 18:10:09;;;;;;;41.33;6.85;;;;;;;;;;5011518;28;20034;-93
2022/04/11 18:12:37;;;;;;;36.97;7.40;;;;;;;;;;4997356;28;20077;-93
2022/04/11 18:15:10;;;;;;;35.80;6.68;;;;;;;;;;5002299;28;20054;-92
2022/04/11 18:17:36;;;;;;;38.92;6.85;;;;;;;;;;5009950;28;20051;-92
2022/04/11 18:20:04;;;;;;;39.05;6.72;;;;;;;;;;5011610;28;20030;-94
2022/04/11 18:22:30;;;;;;;37.75;7.65;;;;;;;;;;4994527;28;20050;-91
2022/04/11 18:24:57;;;;;;;36.30;7.18;;;;;;;;;;5013047;28;20113;-91
2022/04/11 18:27:24;;;;;;;46.97;7.40;;;;;;;;;;5012392;28;20061;-91
2022/04/11 18:32:39;;;;;;;42.63;7.50;;;;;;;;;;5013678;28;20044;-94
2022/04/11 18:35:08;;;;;;;34.33;7.40;;;;;;;;;;5010729;28;20061;-92
2022/04/11 18:37:38;;;;;;;42.22;7.95;;;;;;;;;;5010626;28;20077;-96
2022/04/11 18:40:07;;;;;;;40.75;8.07;;;;;;;;;;5010715;28;20030;-91
2022/04/11 18:42:34;;;;;;;42.60;7.70;;;;;;;;;;5012897;28;20040;-93
2022/04/11 18:45:01;;;;;;;38.13;7.55;;;;;;;;;;5011659;28;20042;-93
2022/04/11 18:47:28;;;;;;;53.63;16.02;;;;;;;;;;5009589;28;20054;-92
2022/04/11 18:49:55;;;;;;;46.28;11.05;;;;;;;;;;4993813;28;20030;-91
2022/04/11 18:52:21;;;;;;;38.03;7.32;;;;;;;;;;4995590;28;20034;-93
2022/04/11 18:54:49;;;;;;;37.72;7.45;;;;;;;;;;5016013;28;20045;-92
2022/04/11 18:57:15;;;;;;;37.03;7.07;;;;;;;;;;4998256;28;20071;-95
2022/04/11 18:59:42;;;;;;;47.58;7.70;;;;;;;;;;4998017;28;20299;-91
2022/04/11 19:02:09;;;;;;;40.63;8.65;;;;;;;;;;4984161;28;20081;-91
2022/04/11 19:04:38;;;;;;;49.42;8.57;;;;;;;;;;5000056;28;20084;-94
2022/04/11 19:07:06;;;;;;;43.47;8.97;;;;;;;;;;4980771;28;20049;-91
2022/04/11 19:09:32;;;;;;;47.53;9.07;;;;;;;;;;4979691;28;20046;-90
2022/04/11 19:12:00;;;;;;;41.85;9.45;;;;;;;;;;4978723;28;20149;-94
2022/04/11 19:14:34;;;;;;;38.90;7.40;;;;;;;;;;4996919;28;20578;-92
2022/04/11 19:17:01;;;;;;;45.85;9.73;;;;;;;;;;4998088;28;20327;-91
2022/04/11 19:19:28;;;;;;;47.10;9.70;;;;;;;;;;4995797;28;20050;-93
2022/04/11 19:21:55;;;;;;;51.50;9.02;;;;;;;;;;5004814;28;20046;-94
2022/04/11 19:24:31;;;;;;;35.70;8.35;;;;;;;;;;5000020;28;20042;-96
2022/04/11 19:26:58;;;;;;;42.53;9.45;;;;;;;;;;4973863;28;20047;-96
2022/04/11 19:29:25;;;;;;;48.85;10.27;;;;;;;;;;4990743;28;20034;-96
2022/04/11 19:31:52;;;;;;;47.42;10.48;;;;;;;;;;5004889;28;20046;-92
2022/04/11 19:34:18;;;;;;;58.10;11.90;;;;;;;;;;4976327;28;20153;-90
2022/04/11 19:36:49;;;;;;;40.47;9.90;;;;;;;;;;4975704;28;20093;-89
2022/04/11 19:39:17;;;;;;;41.67;8.27;;;;;;;;;;4991878;28;20050;-90
2022/04/11 19:41:47;;;;;;;47.97;8.05;;;;;;;;;;4975856;28;20054;-90
2022/04/11 19:44:14;;;;;;;37.20;7.72;;;;;;;;;;4974974;28;20078;-88
2022/04/11 19:46:40;;;;;;;50.03;7.75;;;;;;;;;;4992951;28;20077;-89
2022/04/11 19:51:52;;;;;;;45.35;7.75;;;;;;;;;;4990446;28;20047;-89
2022/04/11 19:54:19;;;;;;;49.15;8.60;;;;;;;;;;4974325;28;20047;-89
2022/04/11 19:56:46;;;;;;;38.15;7.78;;;;;;;;;;4991385;28;20054;-88
2022/04/11 19:59:12;;;;;;;38.15;8.00;;;;;;;;;;4973020;28;20097;-91
2022/04/11 20:01:40;;;;;;;49.78;8.90;;;;;;;;;;4975937;28;20065;-88
2022/04/11 20:04:07;;;;;;;55.00;8.38;;;;;;;;;;4990824;28;20057;-88
2022/04/11 20:06:34;;;;;;;39.80;9.25;;;;;;;;;;4991681;28;20050;-90
2022/04/11 20:09:03;;;;;;;48.75;9.30;;;;;;;;;;4992175;28;20058;-90
2022/04/11 20:11:30;;;;;;;;;;;;;;;;;;4976359;28;20503;-90
2022/04/11 20:13:56;;;;;;;46.63;7.85;;;;;;;;;;4982747;28;19960;-89
2022/04/11 20:16:23;;;;;;;42.45;8.48;;;;;;;;;;4992522;28;20054;-88
2022/04/11 20:18:50;;;;;;;59.53;8.75;;;;;;;;;;4993159;28;20053;-88
2022/04/11 20:21:16;;;;;;;46.17;9.18;;;;;;;;;;4993776;28;20058;-89
2022/04/11 20:23:43;;;;;;;43.35;8.55;;;;;;;;;;4993155;28;20074;-89
2022/04/11 20:26:13;;;;;;;55.45;9.02;;;;;;;;;;4977566;28;20053;-88
2022/04/11 20:28:41;;;;;;;61.08;10.65;;;;;;;;;;4994131;28;20455;-89
2022/04/11 20:31:11;;;;;;;46.38;9.05;;;;;;;;;;4991027;28;20137;-89
2022/04/11 20:33:39;;;;;;;51.35;9.13;;;;;;;;;;4991048;28;20610;-90
2022/04/11 20:36:10;;;;;;;50.90;9.45;;;;;;;;;;4989193;28;20153;-89
2022/04/11 20:38:37;;;;;;;48.88;9.68;;;;;;;;;;4990699;28;20161;-88
2022/04/11 20:41:05;;;;;;;56.38;10.98;;;;;;;;;;4990294;28;20066;-86
2022/04/11 20:43:32;;;;;;;;;;;;;;;;;;4990300;28;20057;-90
2022/04/11 20:45:59;;;;;;;47.50;9.50;;;;;;;;;;4991233;28;19984;-90
2022/04/11 20:48:26;;;;;;;47.97;9.73;;;;;;;;;;4991690;28;20545;-89
2022/04/11 20:50:53;;;;;;;43.53;9.57;;;;;;;;;;4990723;28;20074;-89
2022/04/11 20:53:19;;;;;;;64.28;11.23;;;;;;;;;;4986538;28;20078;-87
2022/04/11 20:55:47;;;;;;;45.17;10.15;;;;;;;;;;4985474;28;20152;-88
2022/04/11 20:58:15;;;;;;;47.50;8.60;;;;;;;;;;4973103;28;20133;-88
2022/04/11 21:00:44;;;;;;;53.92;9.73;;;;;;;;;;4973419;28;20092;-89
2022/04/11 21:03:12;;;;;;;50.05;10.07;;;;;;;;;;4989813;28;20466;-88